sensor_id;sensor_type;location;lat;lon;timestamp;temperature;humidity
6865;DHT22;3471;49.678;8.388;2022-08-03T00:01:37;23.20;99.90
6865;DHT22;3471;49.678;8.388;2022-08-03T00:04:04;23.10;99.90
6865;DHT22;3471;49.678;8.388;2022-08-03T00:06:30;23.10;99.90
6865;DHT22;3471;49.678;8.388;2022-08-03T00:08:56;23.00;99.90
6865;DHT22;3471;49.678;8.388;2022-08-03T00:11:21;23.00;99.90
6865;DHT22;3471;49.678;8.388;2022-08-03T00:13:47;23.00;99.90
6865;DHT22;3471;49.678;8.388;2022-08-03T00:16:13;23.00;99.90
6865;DHT22;3471;49.678;8.388;2022-08-03T00:18:39;23.00;99.90
6865;DHT22;3471;49.678;8.388;2022-08-03T00:21:05;23.00;99.90
6865;DHT22;3471;49.678;8.388;2022-08-03T00:23:31;23.00;99.90
6865;DHT22;3471;49.678;8.388;2022-08-03T00:25:56;23.00;99.90
6865;DHT22;3471;49.678;8.388;2022-08-03T00:28:22;23.10;99.90
6865;DHT22;3471;49.678;8.388;2022-08-03T00:30:48;23.00;99.90
6865;DHT22;3471;49.678;8.388;2022-08-03T00:33:14;23.00;99.90
6865;DHT22;3471;49.678;8.388;2022-08-03T00:35:39;23.00;99.90
6865;DHT22;3471;49.678;8.388;2022-08-03T00:38:05;22.90;99.90
6865;DHT22;3471;49.678;8.388;2022-08-03T00:40:31;22.90;99.90
6865;DHT22;3471;49.678;8.388;2022-08-03T00:43:01;22.80;99.90
6865;DHT22;3471;49.678;8.388;2022-08-03T00:45:29;22.80;99.90
6865;DHT22;3471;49.678;8.388;2022-08-03T00:47:56;22.80;99.90
6865;DHT22;3471;49.678;8.388;2022-08-03T00:50:24;22.80;99.90
6865;DHT22;3471;49.678;8.388;2022-08-03T00:52:55;22.70;99.90
6865;DHT22;3471;49.678;8.388;2022-08-03T00:55:21;22.70;99.90
6865;DHT22;3471;49.678;8.388;2022-08-03T00:57:48;22.60;99.90
6865;DHT22;3471;49.678;8.388;2022-08-03T01:00:16;22.40;99.90
6865;DHT22;3471;49.678;8.388;2022-08-03T01:02:42;22.30;99.90
6865;DHT22;3471;49.678;8.388;2022-08-03T01:05:08;22.20;99.90
6865;DHT22;3471;49.678;8.388;2022-08-03T01:16:27;21.80;99.90
6865;DHT22;3471;49.678;8.388;2022-08-03T01:19:01;21.70;99.90
6865;DHT22;3471;49.678;8.388;2022-08-03T01:24:33;21.60;99.90
6865;DHT22;3471;49.678;8.388;2022-08-03T01:29:57;21.50;99.90
6865;DHT22;3471;49.678;8.388;2022-08-03T01:35:01;21.60;99.90
6865;DHT22;3471;49.678;8.388;2022-08-03T01:37:34;21.70;99.90
6865;DHT22;3471;49.678;8.388;2022-08-03T01:40:02;21.70;99.90
6865;DHT22;3471;49.678;8.388;2022-08-03T01:42:30;21.70;99.90
6865;DHT22;3471;49.678;8.388;2022-08-03T01:44:57;21.70;99.90
6865;DHT22;3471;49.678;8.388;2022-08-03T01:47:25;21.60;99.90
6865;DHT22;3471;49.678;8.388;2022-08-03T01:49:52;21.60;99.90
6865;DHT22;3471;49.678;8.388;2022-08-03T01:52:19;21.60;99.90
6865;DHT22;3471;49.678;8.388;2022-08-03T01:54:48;21.70;99.90
6865;DHT22;3471;49.678;8.388;2022-08-03T01:57:15;21.70;99.90
6865;DHT22;3471;49.678;8.388;2022-08-03T01:59:43;21.70;99.90
6865;DHT22;3471;49.678;8.388;2022-08-03T02:02:12;21.70;99.90
6865;DHT22;3471;49.678;8.388;2022-08-03T02:04:40;21.70;99.90
6865;DHT22;3471;49.678;8.388;2022-08-03T02:07:08;21.70;99.90
6865;DHT22;3471;49.678;8.388;2022-08-03T02:09:39;21.60;99.90
6865;DHT22;3471;49.678;8.388;2022-08-03T02:12:10;21.60;99.90
6865;DHT22;3471;49.678;8.388;2022-08-03T02:14:38;21.50;99.90
6865;DHT22;3471;49.678;8.388;2022-08-03T02:17:06;21.50;99.90
6865;DHT22;3471;49.678;8.388;2022-08-03T02:19:32;21.40;99.90
6865;DHT22;3471;49.678;8.388;2022-08-03T02:21:59;21.40;99.90
6865;DHT22;3471;49.678;8.388;2022-08-03T02:24:25;21.40;99.90
6865;DHT22;3471;49.678;8.388;2022-08-03T02:26:53;21.40;99.90
6865;DHT22;3471;49.678;8.388;2022-08-03T02:29:23;21.50;99.90
6865;DHT22;3471;49.678;8.388;2022-08-03T02:31:50;21.50;99.90
6865;DHT22;3471;49.678;8.388;2022-08-03T02:34:17;21.50;99.90
6865;DHT22;3471;49.678;8.388;2022-08-03T02:36:46;21.50;99.90
6865;DHT22;3471;49.678;8.388;2022-08-03T02:39:17;21.50;99.90
6865;DHT22;3471;49.678;8.388;2022-08-03T02:41:49;21.40;99.90
6865;DHT22;3471;49.678;8.388;2022-08-03T02:44:17;21.40;99.90
6865;DHT22;3471;49.678;8.388;2022-08-03T02:46:47;21.40;99.90
6865;DHT22;3471;49.678;8.388;2022-08-03T02:49:15;21.40;99.90
6865;DHT22;3471;49.678;8.388;2022-08-03T02:51:44;21.30;99.90
6865;DHT22;3471;49.678;8.388;2022-08-03T02:54:14;21.30;99.90
6865;DHT22;3471;49.678;8.388;2022-08-03T02:56:42;21.30;99.90
6865;DHT22;3471;49.678;8.388;2022-08-03T02:59:09;21.20;99.90
6865;DHT22;3471;49.678;8.388;2022-08-03T03:01:37;21.20;99.90
6865;DHT22;3471;49.678;8.388;2022-08-03T03:04:04;21.20;99.90
6865;DHT22;3471;49.678;8.388;2022-08-03T03:06:30;21.20;99.90
6865;DHT22;3471;49.678;8.388;2022-08-03T03:08:58;21.20;99.90
6865;DHT22;3471;49.678;8.388;2022-08-03T03:11:24;21.20;99.90
6865;DHT22;3471;49.678;8.388;2022-08-03T03:13:51;21.20;99.90
6865;DHT22;3471;49.678;8.388;2022-08-03T03:16:18;21.10;99.90
6865;DHT22;3471;49.678;8.388;2022-08-03T03:18:45;21.10;99.90
6865;DHT22;3471;49.678;8.388;2022-08-03T03:21:12;21.10;99.90
6865;DHT22;3471;49.678;8.388;2022-08-03T03:23:40;21.10;99.90
6865;DHT22;3471;49.678;8.388;2022-08-03T03:26:07;21.10;99.90
6865;DHT22;3471;49.678;8.388;2022-08-03T03:28:33;21.10;99.90
6865;DHT22;3471;49.678;8.388;2022-08-03T03:31:03;21.10;99.90
6865;DHT22;3471;49.678;8.388;2022-08-03T03:33:29;21.00;99.90
6865;DHT22;3471;49.678;8.388;2022-08-03T03:35:56;21.00;99.90
6865;DHT22;3471;49.678;8.388;2022-08-03T03:38:22;21.00;99.90
6865;DHT22;3471;49.678;8.388;2022-08-03T03:40:48;21.10;99.90
6865;DHT22;3471;49.678;8.388;2022-08-03T03:43:14;21.10;99.90
6865;DHT22;3471;49.678;8.388;2022-08-03T03:45:40;21.10;99.90
6865;DHT22;3471;49.678;8.388;2022-08-03T03:48:07;21.10;99.90
6865;DHT22;3471;49.678;8.388;2022-08-03T03:50:34;21.20;99.90
6865;DHT22;3471;49.678;8.388;2022-08-03T03:53:03;21.20;99.90
6865;DHT22;3471;49.678;8.388;2022-08-03T03:55:29;21.20;99.90
6865;DHT22;3471;49.678;8.388;2022-08-03T03:57:55;21.20;99.90
6865;DHT22;3471;49.678;8.388;2022-08-03T04:00:21;21.20;99.90
6865;DHT22;3471;49.678;8.388;2022-08-03T04:02:47;21.20;99.90
6865;DHT22;3471;49.678;8.388;2022-08-03T04:05:13;21.20;99.90
6865;DHT22;3471;49.678;8.388;2022-08-03T04:08:02;21.20;99.90
6865;DHT22;3471;49.678;8.388;2022-08-03T04:11:26;21.20;99.90
6865;DHT22;3471;49.678;8.388;2022-08-03T04:16:28;21.10;99.90
6865;DHT22;3471;49.678;8.388;2022-08-03T04:19:00;21.10;99.90
6865;DHT22;3471;49.678;8.388;2022-08-03T04:21:27;21.10;99.90
6865;DHT22;3471;49.678;8.388;2022-08-03T04:23:56;21.00;99.90
6865;DHT22;3471;49.678;8.388;2022-08-03T04:26:25;21.00;99.90
6865;DHT22;3471;49.678;8.388;2022-08-03T04:28:52;21.00;99.90
6865;DHT22;3471;49.678;8.388;2022-08-03T04:31:22;20.90;99.90
6865;DHT22;3471;49.678;8.388;2022-08-03T04:33:51;20.80;99.90
6865;DHT22;3471;49.678;8.388;2022-08-03T04:36:21;20.80;99.90
6865;DHT22;3471;49.678;8.388;2022-08-03T04:39:02;20.80;99.90
6865;DHT22;3471;49.678;8.388;2022-08-03T04:41:29;20.90;99.90
6865;DHT22;3471;49.678;8.388;2022-08-03T04:43:57;20.90;99.90
6865;DHT22;3471;49.678;8.388;2022-08-03T04:46:26;20.90;99.90
6865;DHT22;3471;49.678;8.388;2022-08-03T04:48:54;21.00;99.90
6865;DHT22;3471;49.678;8.388;2022-08-03T04:51:20;21.10;99.90
6865;DHT22;3471;49.678;8.388;2022-08-03T04:53:45;21.10;99.90
6865;DHT22;3471;49.678;8.388;2022-08-03T04:56:11;21.20;99.90
6865;DHT22;3471;49.678;8.388;2022-08-03T04:58:37;21.30;99.90
6865;DHT22;3471;49.678;8.388;2022-08-03T05:01:02;21.40;99.90
6865;DHT22;3471;49.678;8.388;2022-08-03T05:03:28;21.50;99.90
6865;DHT22;3471;49.678;8.388;2022-08-03T05:05:54;21.60;99.90
6865;DHT22;3471;49.678;8.388;2022-08-03T05:08:20;21.70;99.90
6865;DHT22;3471;49.678;8.388;2022-08-03T05:10:46;21.70;99.90
6865;DHT22;3471;49.678;8.388;2022-08-03T05:13:12;21.80;99.90
6865;DHT22;3471;49.678;8.388;2022-08-03T05:15:39;21.90;99.90
6865;DHT22;3471;49.678;8.388;2022-08-03T05:18:04;21.90;99.90
6865;DHT22;3471;49.678;8.388;2022-08-03T05:20:30;22.00;99.90
6865;DHT22;3471;49.678;8.388;2022-08-03T05:22:56;22.10;99.90
6865;DHT22;3471;49.678;8.388;2022-08-03T05:25:23;22.20;99.90
6865;DHT22;3471;49.678;8.388;2022-08-03T05:27:49;22.30;99.90
6865;DHT22;3471;49.678;8.388;2022-08-03T05:30:15;22.30;99.90
6865;DHT22;3471;49.678;8.388;2022-08-03T05:32:40;22.40;99.90
6865;DHT22;3471;49.678;8.388;2022-08-03T05:35:06;22.50;99.90
6865;DHT22;3471;49.678;8.388;2022-08-03T05:37:32;22.60;99.90
6865;DHT22;3471;49.678;8.388;2022-08-03T05:39:57;22.70;99.90
6865;DHT22;3471;49.678;8.388;2022-08-03T05:42:23;22.80;99.90
6865;DHT22;3471;49.678;8.388;2022-08-03T05:44:49;23.00;99.90
6865;DHT22;3471;49.678;8.388;2022-08-03T05:47:15;23.00;99.90
6865;DHT22;3471;49.678;8.388;2022-08-03T05:49:40;23.10;99.90
6865;DHT22;3471;49.678;8.388;2022-08-03T05:52:06;23.20;99.90
6865;DHT22;3471;49.678;8.388;2022-08-03T05:54:31;23.30;99.90
6865;DHT22;3471;49.678;8.388;2022-08-03T05:56:57;23.40;99.90
6865;DHT22;3471;49.678;8.388;2022-08-03T05:59:23;23.50;99.90
6865;DHT22;3471;49.678;8.388;2022-08-03T06:01:51;23.50;99.90
6865;DHT22;3471;49.678;8.388;2022-08-03T06:04:17;23.60;99.90
6865;DHT22;3471;49.678;8.388;2022-08-03T06:06:42;23.70;99.90
6865;DHT22;3471;49.678;8.388;2022-08-03T06:09:08;23.70;99.90
6865;DHT22;3471;49.678;8.388;2022-08-03T06:11:37;23.80;99.90
6865;DHT22;3471;49.678;8.388;2022-08-03T06:14:03;23.90;99.90
6865;DHT22;3471;49.678;8.388;2022-08-03T06:16:28;23.90;99.90
6865;DHT22;3471;49.678;8.388;2022-08-03T06:18:54;23.90;99.90
6865;DHT22;3471;49.678;8.388;2022-08-03T06:21:20;23.90;99.90
6865;DHT22;3471;49.678;8.388;2022-08-03T06:23:45;24.00;99.90
6865;DHT22;3471;49.678;8.388;2022-08-03T06:26:12;24.00;99.90
6865;DHT22;3471;49.678;8.388;2022-08-03T06:28:37;24.20;99.90
6865;DHT22;3471;49.678;8.388;2022-08-03T06:31:03;24.30;99.90
6865;DHT22;3471;49.678;8.388;2022-08-03T06:33:29;24.40;99.90
6865;DHT22;3471;49.678;8.388;2022-08-03T06:35:54;24.50;99.90
6865;DHT22;3471;49.678;8.388;2022-08-03T06:38:20;24.50;99.90
6865;DHT22;3471;49.678;8.388;2022-08-03T06:40:48;24.60;99.90
6865;DHT22;3471;49.678;8.388;2022-08-03T06:43:14;24.70;99.90
6865;DHT22;3471;49.678;8.388;2022-08-03T06:45:40;24.80;99.90
6865;DHT22;3471;49.678;8.388;2022-08-03T06:48:08;24.80;99.90
6865;DHT22;3471;49.678;8.388;2022-08-03T06:50:35;24.90;99.90
6865;DHT22;3471;49.678;8.388;2022-08-03T06:53:02;25.00;99.90
6865;DHT22;3471;49.678;8.388;2022-08-03T06:55:28;25.00;99.90
6865;DHT22;3471;49.678;8.388;2022-08-03T06:57:53;25.20;99.90
6865;DHT22;3471;49.678;8.388;2022-08-03T07:00:19;25.30;99.90
6865;DHT22;3471;49.678;8.388;2022-08-03T07:02:45;25.40;99.90
6865;DHT22;3471;49.678;8.388;2022-08-03T07:05:11;25.50;99.90
6865;DHT22;3471;49.678;8.388;2022-08-03T07:07:37;25.60;99.90
6865;DHT22;3471;49.678;8.388;2022-08-03T07:10:04;25.70;99.90
6865;DHT22;3471;49.678;8.388;2022-08-03T07:12:31;25.80;99.90
6865;DHT22;3471;49.678;8.388;2022-08-03T07:14:58;26.00;99.90
6865;DHT22;3471;49.678;8.388;2022-08-03T07:17:24;26.10;99.90
6865;DHT22;3471;49.678;8.388;2022-08-03T07:19:50;26.20;99.90
6865;DHT22;3471;49.678;8.388;2022-08-03T07:22:15;26.30;99.90
6865;DHT22;3471;49.678;8.388;2022-08-03T07:24:41;26.50;99.90
6865;DHT22;3471;49.678;8.388;2022-08-03T07:27:07;26.70;99.90
6865;DHT22;3471;49.678;8.388;2022-08-03T07:29:34;26.80;99.90
6865;DHT22;3471;49.678;8.388;2022-08-03T07:32:01;26.90;99.80
6865;DHT22;3471;49.678;8.388;2022-08-03T07:34:27;27.00;99.60
6865;DHT22;3471;49.678;8.388;2022-08-03T07:36:53;27.10;99.10
6865;DHT22;3471;49.678;8.388;2022-08-03T07:39:18;27.20;98.20
6865;DHT22;3471;49.678;8.388;2022-08-03T07:41:45;27.40;99.00
6865;DHT22;3471;49.678;8.388;2022-08-03T07:44:10;27.50;98.70
6865;DHT22;3471;49.678;8.388;2022-08-03T07:46:36;27.60;98.50
6865;DHT22;3471;49.678;8.388;2022-08-03T07:49:02;27.80;98.60
6865;DHT22;3471;49.678;8.388;2022-08-03T07:51:27;27.90;97.40
6865;DHT22;3471;49.678;8.388;2022-08-03T07:53:53;28.00;99.00
6865;DHT22;3471;49.678;8.388;2022-08-03T07:56:22;28.10;97.60
6865;DHT22;3471;49.678;8.388;2022-08-03T07:58:50;28.20;98.10
6865;DHT22;3471;49.678;8.388;2022-08-03T08:01:16;28.30;97.70
6865;DHT22;3471;49.678;8.388;2022-08-03T08:03:46;28.40;99.00
6865;DHT22;3471;49.678;8.388;2022-08-03T08:06:12;28.50;98.40
6865;DHT22;3471;49.678;8.388;2022-08-03T08:08:38;28.60;96.50
6865;DHT22;3471;49.678;8.388;2022-08-03T08:11:04;28.70;95.40
6865;DHT22;3471;49.678;8.388;2022-08-03T08:13:30;28.70;95.80
6865;DHT22;3471;49.678;8.388;2022-08-03T08:15:56;28.80;94.20
6865;DHT22;3471;49.678;8.388;2022-08-03T08:18:21;28.80;94.80
6865;DHT22;3471;49.678;8.388;2022-08-03T08:20:48;29.00;95.90
6865;DHT22;3471;49.678;8.388;2022-08-03T08:23:14;29.10;96.10
6865;DHT22;3471;49.678;8.388;2022-08-03T08:25:40;29.20;96.70
6865;DHT22;3471;49.678;8.388;2022-08-03T08:28:06;29.30;97.50
6865;DHT22;3471;49.678;8.388;2022-08-03T08:30:32;29.50;95.00
6865;DHT22;3471;49.678;8.388;2022-08-03T08:32:58;29.70;94.40
6865;DHT22;3471;49.678;8.388;2022-08-03T08:35:24;29.80;94.20
6865;DHT22;3471;49.678;8.388;2022-08-03T08:37:49;29.80;94.90
6865;DHT22;3471;49.678;8.388;2022-08-03T08:40:15;29.90;93.70
6865;DHT22;3471;49.678;8.388;2022-08-03T08:42:42;30.00;94.30
6865;DHT22;3471;49.678;8.388;2022-08-03T08:45:09;30.10;93.10
6865;DHT22;3471;49.678;8.388;2022-08-03T08:47:38;30.10;93.20
6865;DHT22;3471;49.678;8.388;2022-08-03T08:50:05;30.10;93.10
6865;DHT22;3471;49.678;8.388;2022-08-03T08:52:32;30.20;92.60
6865;DHT22;3471;49.678;8.388;2022-08-03T08:55:00;30.20;94.70
6865;DHT22;3471;49.678;8.388;2022-08-03T08:57:32;30.30;95.00
6865;DHT22;3471;49.678;8.388;2022-08-03T08:59:58;30.40;93.20
6865;DHT22;3471;49.678;8.388;2022-08-03T09:02:27;30.60;93.60
6865;DHT22;3471;49.678;8.388;2022-08-03T09:04:53;30.70;91.30
6865;DHT22;3471;49.678;8.388;2022-08-03T09:07:19;30.90;91.70
6865;DHT22;3471;49.678;8.388;2022-08-03T09:09:44;31.00;91.00
6865;DHT22;3471;49.678;8.388;2022-08-03T09:12:10;31.10;90.10
6865;DHT22;3471;49.678;8.388;2022-08-03T09:14:36;31.10;90.20
6865;DHT22;3471;49.678;8.388;2022-08-03T09:17:02;31.20;91.70
6865;DHT22;3471;49.678;8.388;2022-08-03T09:19:30;31.30;92.00
6865;DHT22;3471;49.678;8.388;2022-08-03T09:24:34;31.60;91.00
6865;DHT22;3471;49.678;8.388;2022-08-03T09:27:00;31.70;91.40
6865;DHT22;3471;49.678;8.388;2022-08-03T09:29:31;31.90;89.00
6865;DHT22;3471;49.678;8.388;2022-08-03T09:32:04;32.00;92.80
6865;DHT22;3471;49.678;8.388;2022-08-03T09:34:29;32.20;92.60
6865;DHT22;3471;49.678;8.388;2022-08-03T09:36:56;32.40;91.40
6865;DHT22;3471;49.678;8.388;2022-08-03T09:39:27;32.60;89.30
6865;DHT22;3471;49.678;8.388;2022-08-03T09:42:13;32.70;90.00
6865;DHT22;3471;49.678;8.388;2022-08-03T09:44:45;32.80;81.30
6865;DHT22;3471;49.678;8.388;2022-08-03T09:47:13;32.90;82.60
6865;DHT22;3471;49.678;8.388;2022-08-03T09:49:40;33.00;84.30
6865;DHT22;3471;49.678;8.388;2022-08-03T09:52:17;33.00;89.80
6865;DHT22;3471;49.678;8.388;2022-08-03T09:54:44;33.10;82.70
6865;DHT22;3471;49.678;8.388;2022-08-03T09:57:24;33.10;83.20
6865;DHT22;3471;49.678;8.388;2022-08-03T09:59:51;33.00;84.10
6865;DHT22;3471;49.678;8.388;2022-08-03T10:02:21;33.00;81.60
6865;DHT22;3471;49.678;8.388;2022-08-03T10:04:48;33.00;87.90
6865;DHT22;3471;49.678;8.388;2022-08-03T10:07:15;32.90;86.00
6865;DHT22;3471;49.678;8.388;2022-08-03T10:09:56;32.90;84.30
6865;DHT22;3471;49.678;8.388;2022-08-03T10:12:23;33.10;79.70
6865;DHT22;3471;49.678;8.388;2022-08-03T10:14:49;33.10;84.50
6865;DHT22;3471;49.678;8.388;2022-08-03T10:17:17;33.20;82.30
6865;DHT22;3471;49.678;8.388;2022-08-03T10:19:42;33.40;80.00
6865;DHT22;3471;49.678;8.388;2022-08-03T10:22:18;33.50;85.20
6865;DHT22;3471;49.678;8.388;2022-08-03T10:25:06;33.70;87.90
6865;DHT22;3471;49.678;8.388;2022-08-03T10:27:35;33.70;86.10
6865;DHT22;3471;49.678;8.388;2022-08-03T10:30:05;33.80;90.00
6865;DHT22;3471;49.678;8.388;2022-08-03T10:32:42;34.00;81.90
6865;DHT22;3471;49.678;8.388;2022-08-03T10:35:14;34.10;82.60
6865;DHT22;3471;49.678;8.388;2022-08-03T10:37:43;34.10;79.00
6865;DHT22;3471;49.678;8.388;2022-08-03T10:40:14;34.20;86.90
6865;DHT22;3471;49.678;8.388;2022-08-03T10:42:44;34.40;80.50
6865;DHT22;3471;49.678;8.388;2022-08-03T10:45:22;34.50;75.30
6865;DHT22;3471;49.678;8.388;2022-08-03T10:47:49;34.60;78.10
6865;DHT22;3471;49.678;8.388;2022-08-03T10:50:16;34.60;74.00
6865;DHT22;3471;49.678;8.388;2022-08-03T10:53:03;34.70;72.20
6865;DHT22;3471;49.678;8.388;2022-08-03T10:55:36;34.70;86.40
6865;DHT22;3471;49.678;8.388;2022-08-03T11:01:08;35.00;78.90
6865;DHT22;3471;49.678;8.388;2022-08-03T11:06:24;35.20;75.10
6865;DHT22;3471;49.678;8.388;2022-08-03T11:09:16;35.30;78.80
6865;DHT22;3471;49.678;8.388;2022-08-03T11:11:44;35.30;74.30
6865;DHT22;3471;49.678;8.388;2022-08-03T11:14:16;35.20;78.50
6865;DHT22;3471;49.678;8.388;2022-08-03T11:16:49;35.30;80.60
6865;DHT22;3471;49.678;8.388;2022-08-03T11:19:18;35.20;79.70
6865;DHT22;3471;49.678;8.388;2022-08-03T11:32:51;35.70;75.80
6865;DHT22;3471;49.678;8.388;2022-08-03T11:35:21;35.90;73.80
6865;DHT22;3471;49.678;8.388;2022-08-03T11:40:44;36.20;72.30
6865;DHT22;3471;49.678;8.388;2022-08-03T11:46:07;36.00;69.30
6865;DHT22;3471;49.678;8.388;2022-08-03T11:51:00;36.00;71.10
6865;DHT22;3471;49.678;8.388;2022-08-03T11:53:26;36.10;72.80
6865;DHT22;3471;49.678;8.388;2022-08-03T11:55:52;36.20;69.70
6865;DHT22;3471;49.678;8.388;2022-08-03T11:58:20;36.20;68.80
6865;DHT22;3471;49.678;8.388;2022-08-03T12:00:47;36.40;68.60
6865;DHT22;3471;49.678;8.388;2022-08-03T12:03:15;36.40;68.20
6865;DHT22;3471;49.678;8.388;2022-08-03T12:05:47;36.50;72.00
6865;DHT22;3471;49.678;8.388;2022-08-03T12:08:15;36.70;71.10
6865;DHT22;3471;49.678;8.388;2022-08-03T12:10:48;36.90;76.40
6865;DHT22;3471;49.678;8.388;2022-08-03T12:13:14;37.00;73.20
6865;DHT22;3471;49.678;8.388;2022-08-03T12:15:40;37.10;67.90
6865;DHT22;3471;49.678;8.388;2022-08-03T12:18:14;37.10;69.50
6865;DHT22;3471;49.678;8.388;2022-08-03T12:20:42;37.20;69.10
6865;DHT22;3471;49.678;8.388;2022-08-03T12:23:08;37.40;67.40
6865;DHT22;3471;49.678;8.388;2022-08-03T12:25:35;37.50;65.20
6865;DHT22;3471;49.678;8.388;2022-08-03T12:28:16;37.70;71.80
6865;DHT22;3471;49.678;8.388;2022-08-03T12:30:50;37.90;69.10
6865;DHT22;3471;49.678;8.388;2022-08-03T12:33:20;38.00;71.40
6865;DHT22;3471;49.678;8.388;2022-08-03T12:36:08;38.20;66.50
6865;DHT22;3471;49.678;8.388;2022-08-03T12:38:34;38.40;67.20
6865;DHT22;3471;49.678;8.388;2022-08-03T12:41:03;38.60;67.30
6865;DHT22;3471;49.678;8.388;2022-08-03T12:43:29;38.80;70.60
6865;DHT22;3471;49.678;8.388;2022-08-03T12:46:14;39.00;65.10
6865;DHT22;3471;49.678;8.388;2022-08-03T12:49:06;39.20;67.00
6865;DHT22;3471;49.678;8.388;2022-08-03T12:51:34;39.50;65.00
6865;DHT22;3471;49.678;8.388;2022-08-03T12:54:01;39.50;65.70
6865;DHT22;3471;49.678;8.388;2022-08-03T12:56:26;39.40;65.90
6865;DHT22;3471;49.678;8.388;2022-08-03T12:58:52;39.40;63.70
6865;DHT22;3471;49.678;8.388;2022-08-03T13:01:18;39.40;61.10
6865;DHT22;3471;49.678;8.388;2022-08-03T13:03:47;39.40;64.50
6865;DHT22;3471;49.678;8.388;2022-08-03T13:06:17;39.40;63.70
6865;DHT22;3471;49.678;8.388;2022-08-03T13:08:43;39.40;66.40
6865;DHT22;3471;49.678;8.388;2022-08-03T13:11:24;39.60;68.10
6865;DHT22;3471;49.678;8.388;2022-08-03T13:13:51;39.60;63.40
6865;DHT22;3471;49.678;8.388;2022-08-03T13:16:17;39.80;64.10
6865;DHT22;3471;49.678;8.388;2022-08-03T13:18:43;39.90;65.70
6865;DHT22;3471;49.678;8.388;2022-08-03T13:21:12;40.20;65.90
6865;DHT22;3471;49.678;8.388;2022-08-03T13:23:37;40.30;65.90
6865;DHT22;3471;49.678;8.388;2022-08-03T13:26:03;40.50;64.20
6865;DHT22;3471;49.678;8.388;2022-08-03T13:28:29;40.70;63.70
6865;DHT22;3471;49.678;8.388;2022-08-03T13:30:54;40.90;63.70
6865;DHT22;3471;49.678;8.388;2022-08-03T13:33:20;40.50;63.20
6865;DHT22;3471;49.678;8.388;2022-08-03T13:35:46;40.50;62.90
6865;DHT22;3471;49.678;8.388;2022-08-03T13:38:11;40.50;63.50
6865;DHT22;3471;49.678;8.388;2022-08-03T13:40:37;40.40;64.10
6865;DHT22;3471;49.678;8.388;2022-08-03T13:43:03;40.40;66.20
6865;DHT22;3471;49.678;8.388;2022-08-03T13:45:28;40.80;65.70
6865;DHT22;3471;49.678;8.388;2022-08-03T13:47:54;41.10;64.60
6865;DHT22;3471;49.678;8.388;2022-08-03T13:50:20;41.40;67.10
6865;DHT22;3471;49.678;8.388;2022-08-03T13:52:45;41.70;63.80
6865;DHT22;3471;49.678;8.388;2022-08-03T13:55:11;42.10;59.80
6865;DHT22;3471;49.678;8.388;2022-08-03T13:57:37;42.40;59.60
6865;DHT22;3471;49.678;8.388;2022-08-03T14:00:04;42.50;57.40
6865;DHT22;3471;49.678;8.388;2022-08-03T14:02:31;42.60;56.00
6865;DHT22;3471;49.678;8.388;2022-08-03T14:04:56;42.70;56.10
6865;DHT22;3471;49.678;8.388;2022-08-03T14:07:22;42.50;58.80
6865;DHT22;3471;49.678;8.388;2022-08-03T14:09:47;42.50;55.20
6865;DHT22;3471;49.678;8.388;2022-08-03T14:12:13;42.50;55.70
6865;DHT22;3471;49.678;8.388;2022-08-03T14:14:39;42.40;55.60
6865;DHT22;3471;49.678;8.388;2022-08-03T14:17:04;42.40;58.60
6865;DHT22;3471;49.678;8.388;2022-08-03T14:19:30;42.60;56.90
6865;DHT22;3471;49.678;8.388;2022-08-03T14:21:56;42.80;58.70
6865;DHT22;3471;49.678;8.388;2022-08-03T14:24:22;43.20;56.60
6865;DHT22;3471;49.678;8.388;2022-08-03T14:26:48;43.50;57.20
6865;DHT22;3471;49.678;8.388;2022-08-03T14:29:13;43.80;54.40
6865;DHT22;3471;49.678;8.388;2022-08-03T14:31:39;43.90;55.00
6865;DHT22;3471;49.678;8.388;2022-08-03T14:34:05;44.20;53.90
6865;DHT22;3471;49.678;8.388;2022-08-03T14:36:30;44.30;54.40
6865;DHT22;3471;49.678;8.388;2022-08-03T14:38:56;44.50;53.90
6865;DHT22;3471;49.678;8.388;2022-08-03T14:41:21;44.70;55.30
6865;DHT22;3471;49.678;8.388;2022-08-03T14:43:47;45.00;55.00
6865;DHT22;3471;49.678;8.388;2022-08-03T14:46:13;45.20;52.50
6865;DHT22;3471;49.678;8.388;2022-08-03T14:48:39;45.20;55.60
6865;DHT22;3471;49.678;8.388;2022-08-03T14:51:05;45.10;53.60
6865;DHT22;3471;49.678;8.388;2022-08-03T14:53:30;45.00;53.10
6865;DHT22;3471;49.678;8.388;2022-08-03T14:55:56;44.90;52.40
6865;DHT22;3471;49.678;8.388;2022-08-03T14:58:23;44.50;52.20
6865;DHT22;3471;49.678;8.388;2022-08-03T15:00:51;44.50;53.00
6865;DHT22;3471;49.678;8.388;2022-08-03T15:03:18;44.60;51.10
6865;DHT22;3471;49.678;8.388;2022-08-03T15:05:55;44.50;50.20
6865;DHT22;3471;49.678;8.388;2022-08-03T15:08:23;44.50;49.10
6865;DHT22;3471;49.678;8.388;2022-08-03T15:10:49;44.40;51.20
6865;DHT22;3471;49.678;8.388;2022-08-03T15:13:15;44.40;50.10
6865;DHT22;3471;49.678;8.388;2022-08-03T15:15:41;44.40;51.10
6865;DHT22;3471;49.678;8.388;2022-08-03T15:18:07;44.40;51.90
6865;DHT22;3471;49.678;8.388;2022-08-03T15:20:33;44.50;56.00
6865;DHT22;3471;49.678;8.388;2022-08-03T15:22:59;44.70;54.90
6865;DHT22;3471;49.678;8.388;2022-08-03T15:25:24;44.80;55.40
6865;DHT22;3471;49.678;8.388;2022-08-03T15:27:51;45.00;50.70
6865;DHT22;3471;49.678;8.388;2022-08-03T15:30:17;45.00;51.50
6865;DHT22;3471;49.678;8.388;2022-08-03T15:32:42;45.10;49.20
6865;DHT22;3471;49.678;8.388;2022-08-03T15:35:08;45.10;51.40
6865;DHT22;3471;49.678;8.388;2022-08-03T15:37:34;45.00;52.70
6865;DHT22;3471;49.678;8.388;2022-08-03T15:39:59;45.10;53.20
6865;DHT22;3471;49.678;8.388;2022-08-03T15:42:25;45.00;52.70
6865;DHT22;3471;49.678;8.388;2022-08-03T15:44:51;44.90;53.60
6865;DHT22;3471;49.678;8.388;2022-08-03T15:47:16;44.90;50.90
6865;DHT22;3471;49.678;8.388;2022-08-03T15:49:42;44.70;51.10
6865;DHT22;3471;49.678;8.388;2022-08-03T15:52:08;44.60;51.40
6865;DHT22;3471;49.678;8.388;2022-08-03T15:54:33;44.50;52.10
6865;DHT22;3471;49.678;8.388;2022-08-03T15:56:59;44.50;53.70
6865;DHT22;3471;49.678;8.388;2022-08-03T15:59:24;44.30;52.20
6865;DHT22;3471;49.678;8.388;2022-08-03T16:01:50;44.20;52.10
6865;DHT22;3471;49.678;8.388;2022-08-03T16:04:16;44.00;52.20
6865;DHT22;3471;49.678;8.388;2022-08-03T16:06:41;43.80;52.50
6865;DHT22;3471;49.678;8.388;2022-08-03T16:09:07;43.70;53.40
6865;DHT22;3471;49.678;8.388;2022-08-03T16:11:33;43.70;54.40
6865;DHT22;3471;49.678;8.388;2022-08-03T16:13:59;43.60;54.80
6865;DHT22;3471;49.678;8.388;2022-08-03T16:16:25;43.50;53.20
6865;DHT22;3471;49.678;8.388;2022-08-03T16:18:50;43.40;53.20
6865;DHT22;3471;49.678;8.388;2022-08-03T16:21:16;43.30;54.60
6865;DHT22;3471;49.678;8.388;2022-08-03T16:23:42;43.20;56.40
6865;DHT22;3471;49.678;8.388;2022-08-03T16:26:10;43.10;52.50
6865;DHT22;3471;49.678;8.388;2022-08-03T16:28:36;42.80;53.00
6865;DHT22;3471;49.678;8.388;2022-08-03T16:31:04;42.60;54.40
6865;DHT22;3471;49.678;8.388;2022-08-03T16:33:30;42.40;54.20
6865;DHT22;3471;49.678;8.388;2022-08-03T16:35:56;42.20;54.60
6865;DHT22;3471;49.678;8.388;2022-08-03T16:38:21;41.90;56.50
6865;DHT22;3471;49.678;8.388;2022-08-03T16:40:47;41.60;56.90
6865;DHT22;3471;49.678;8.388;2022-08-03T16:43:16;41.20;55.30
6865;DHT22;3471;49.678;8.388;2022-08-03T16:45:42;40.80;56.60
6865;DHT22;3471;49.678;8.388;2022-08-03T16:48:08;40.40;53.00
6865;DHT22;3471;49.678;8.388;2022-08-03T16:50:34;40.00;56.20
6865;DHT22;3471;49.678;8.388;2022-08-03T16:53:03;39.60;55.10